sensor_id;sensor_type;location;lat;lon;timestamp;pressure;altitude;pressure_sealevel;temperature;humidity
77041;BME280;65974;42.664;23.264;2023-04-25T00:00:28;93643.13;;;9.64;84.11
77041;BME280;65974;42.664;23.264;2023-04-25T00:02:54;93637.47;;;9.62;84.22
77041;BME280;65974;42.664;23.264;2023-04-25T00:05:22;93632.91;;;9.62;83.63
77041;BME280;65974;42.664;23.264;2023-04-25T00:07:49;93618.09;;;9.61;84.59
77041;BME280;65974;42.664;23.264;2023-04-25T00:10:15;93609.66;;;9.70;83.87
77041;BME280;65974;42.664;23.264;2023-04-25T00:12:41;93599.00;;;9.73;83.64
77041;BME280;65974;42.664;23.264;2023-04-25T00:15:07;93589.84;;;9.81;82.42
77041;BME280;65974;42.664;23.264;2023-04-25T00:17:33;93588.34;;;9.77;83.00
77041;BME280;65974;42.664;23.264;2023-04-25T00:20:00;93583.00;;;9.80;83.35
77041;BME280;65974;42.664;23.264;2023-04-25T00:22:26;93590.66;;;9.71;84.33
77041;BME280;65974;42.664;23.264;2023-04-25T00:24:51;93591.47;;;9.65;84.15
77041;BME280;65974;42.664;23.264;2023-04-25T00:27:18;93601.38;;;9.61;83.52
77041;BME280;65974;42.664;23.264;2023-04-25T00:29:43;93603.66;;;9.59;83.97
77041;BME280;65974;42.664;23.264;2023-04-25T00:32:09;93596.84;;;9.58;84.11
77041;BME280;65974;42.664;23.264;2023-04-25T00:34:35;93585.47;;;9.57;83.53
77041;BME280;65974;42.664;23.264;2023-04-25T00:37:01;93587.00;;;9.55;84.04
77041;BME280;65974;42.664;23.264;2023-04-25T00:39:30;93587.38;;;9.53;84.06
77041;BME280;65974;42.664;23.264;2023-04-25T00:41:55;93587.78;;;9.48;83.91
77041;BME280;65974;42.664;23.264;2023-04-25T00:44:21;93607.84;;;9.60;84.05
77041;BME280;65974;42.664;23.264;2023-04-25T00:46:48;93595.66;;;9.66;83.75
77041;BME280;65974;42.664;23.264;2023-04-25T00:49:14;93602.09;;;9.68;83.57
77041;BME280;65974;42.664;23.264;2023-04-25T00:51:42;93588.34;;;9.73;82.85
77041;BME280;65974;42.664;23.264;2023-04-25T00:54:09;93586.47;;;9.74;82.56
77041;BME280;65974;42.664;23.264;2023-04-25T00:56:35;93579.66;;;9.73;82.16
77041;BME280;65974;42.664;23.264;2023-04-25T00:59:01;93584.59;;;9.71;82.22
77041;BME280;65974;42.664;23.264;2023-04-25T01:01:26;93573.91;;;9.78;82.43
77041;BME280;65974;42.664;23.264;2023-04-25T01:03:53;93563.66;;;9.76;83.08
77041;BME280;65974;42.664;23.264;2023-04-25T01:06:19;93557.97;;;9.74;82.51
77041;BME280;65974;42.664;23.264;2023-04-25T01:08:45;93562.63;;;9.67;82.92
77041;BME280;65974;42.664;23.264;2023-04-25T01:11:10;93567.88;;;9.70;83.21
77041;BME280;65974;42.664;23.264;2023-04-25T01:13:36;93559.91;;;9.70;84.13
77041;BME280;65974;42.664;23.264;2023-04-25T01:16:02;93563.34;;;9.67;85.21
77041;BME280;65974;42.664;23.264;2023-04-25T01:18:28;93559.25;;;9.59;85.50
77041;BME280;65974;42.664;23.264;2023-04-25T01:20:55;93562.66;;;9.60;86.37
77041;BME280;65974;42.664;23.264;2023-04-25T01:23:23;93568.31;;;9.65;86.28
77041;BME280;65974;42.664;23.264;2023-04-25T01:25:49;93563.03;;;9.62;86.83
77041;BME280;65974;42.664;23.264;2023-04-25T01:28:15;93557.75;;;9.58;87.11
77041;BME280;65974;42.664;23.264;2023-04-25T01:30:41;93563.47;;;9.53;87.14
77041;BME280;65974;42.664;23.264;2023-04-25T01:33:08;93566.16;;;9.46;87.29
77041;BME280;65974;42.664;23.264;2023-04-25T01:35:34;93565.78;;;9.48;86.85
77041;BME280;65974;42.664;23.264;2023-04-25T01:37:59;93573.44;;;9.38;87.62
77041;BME280;65974;42.664;23.264;2023-04-25T01:40:25;93563.94;;;9.37;88.27
77041;BME280;65974;42.664;23.264;2023-04-25T01:42:52;93570.72;;;9.46;87.97
77041;BME280;65974;42.664;23.264;2023-04-25T01:45:18;93569.22;;;9.45;88.28
77041;BME280;65974;42.664;23.264;2023-04-25T01:47:44;93569.63;;;9.43;88.45
77041;BME280;65974;42.664;23.264;2023-04-25T01:50:14;93579.88;;;9.41;88.68
77041;BME280;65974;42.664;23.264;2023-04-25T01:52:40;93579.53;;;9.39;88.58
77041;BME280;65974;42.664;23.264;2023-04-25T01:55:06;93576.47;;;9.41;88.60
77041;BME280;65974;42.664;23.264;2023-04-25T01:57:31;93571.91;;;9.41;88.65
77041;BME280;65974;42.664;23.264;2023-04-25T01:59:59;93572.59;;;9.49;89.09
77041;BME280;65974;42.664;23.264;2023-04-25T02:02:26;93574.88;;;9.50;88.93
77041;BME280;65974;42.664;23.264;2023-04-25T02:04:52;93566.59;;;9.41;89.21
77041;BME280;65974;42.664;23.264;2023-04-25T02:07:17;93581.09;;;9.29;88.87
77041;BME280;65974;42.664;23.264;2023-04-25T02:09:43;93572.78;;;9.24;88.83
77041;BME280;65974;42.664;23.264;2023-04-25T02:12:09;93555.34;;;9.19;88.66
77041;BME280;65974;42.664;23.264;2023-04-25T02:14:35;93568.19;;;9.28;89.56
77041;BME280;65974;42.664;23.264;2023-04-25T02:17:01;93553.41;;;9.27;89.28
77041;BME280;65974;42.664;23.264;2023-04-25T02:19:26;93545.41;;;9.27;89.12
77041;BME280;65974;42.664;23.264;2023-04-25T02:21:52;93543.94;;;9.22;89.31
77041;BME280;65974;42.664;23.264;2023-04-25T02:24:17;93543.91;;;9.29;89.30
77041;BME280;65974;42.664;23.264;2023-04-25T02:26:42;93541.19;;;9.36;89.18
77041;BME280;65974;42.664;23.264;2023-04-25T02:29:09;93536.63;;;9.37;88.30
77041;BME280;65974;42.664;23.264;2023-04-25T02:31:35;93534.34;;;9.39;89.03
77041;BME280;65974;42.664;23.264;2023-04-25T02:34:00;93528.59;;;9.44;88.85
77041;BME280;65974;42.664;23.264;2023-04-25T02:36:26;93530.84;;;9.46;89.02
77041;BME280;65974;42.664;23.264;2023-04-25T02:38:51;93537.78;;;9.36;89.19
77041;BME280;65974;42.664;23.264;2023-04-25T02:41:17;93530.97;;;9.31;88.69
77041;BME280;65974;42.664;23.264;2023-04-25T02:43:43;93518.97;;;9.13;88.86
77041;BME280;65974;42.664;23.264;2023-04-25T02:46:08;93526.56;;;9.07;88.95
77041;BME280;65974;42.664;23.264;2023-04-25T02:48:33;93522.03;;;9.08;88.95
77041;BME280;65974;42.664;23.264;2023-04-25T02:50:59;93505.66;;;9.16;89.07
77041;BME280;65974;42.664;23.264;2023-04-25T02:53:24;93506.81;;;9.15;89.38
77041;BME280;65974;42.664;23.264;2023-04-25T02:55:50;93513.63;;;9.16;89.36
77041;BME280;65974;42.664;23.264;2023-04-25T02:58:17;93506.81;;;9.12;89.57
77041;BME280;65974;42.664;23.264;2023-04-25T03:00:43;93501.88;;;9.14;89.61
77041;BME280;65974;42.664;23.264;2023-04-25T03:03:08;93502.63;;;9.14;89.62
77041;BME280;65974;42.664;23.264;2023-04-25T03:05:33;93494.28;;;9.12;90.18
77041;BME280;65974;42.664;23.264;2023-04-25T03:07:59;93497.28;;;9.18;89.70
77041;BME280;65974;42.664;23.264;2023-04-25T03:10:24;93499.97;;;9.14;90.00
77041;BME280;65974;42.664;23.264;2023-04-25T03:12:50;93504.22;;;9.05;89.57
77041;BME280;65974;42.664;23.264;2023-04-25T03:15:15;93500.81;;;9.01;89.73
77041;BME280;65974;42.664;23.264;2023-04-25T03:17:41;93502.31;;;9.09;89.52
77041;BME280;65974;42.664;23.264;2023-04-25T03:20:07;93492.03;;;9.07;89.42
77041;BME280;65974;42.664;23.264;2023-04-25T03:22:33;93501.94;;;9.03;90.30
77041;BME280;65974;42.664;23.264;2023-04-25T03:24:59;93502.31;;;9.09;90.16
77041;BME280;65974;42.664;23.264;2023-04-25T03:27:24;93492.81;;;9.11;90.45
77041;BME280;65974;42.664;23.264;2023-04-25T03:29:49;93488.25;;;9.08;89.94
77041;BME280;65974;42.664;23.264;2023-04-25T03:32:15;93491.63;;;9.12;89.82
77041;BME280;65974;42.664;23.264;2023-04-25T03:34:40;93495.47;;;9.08;90.17
77041;BME280;65974;42.664;23.264;2023-04-25T03:37:06;93494.69;;;9.11;89.53
77041;BME280;65974;42.664;23.264;2023-04-25T03:39:31;93489.75;;;9.09;89.44
77041;BME280;65974;42.664;23.264;2023-04-25T03:41:57;93494.69;;;9.11;89.78
77041;BME280;65974;42.664;23.264;2023-04-25T03:44:22;93483.34;;;9.07;89.85
77041;BME280;65974;42.664;23.264;2023-04-25T03:46:49;93487.16;;;9.02;89.87
77041;BME280;65974;42.664;23.264;2023-04-25T03:49:15;93486.72;;;9.07;89.71
77041;BME280;65974;42.664;23.264;2023-04-25T03:51:40;93490.16;;;9.08;89.92
77041;BME280;65974;42.664;23.264;2023-04-25T03:54:05;93478.81;;;9.04;90.07
77041;BME280;65974;42.664;23.264;2023-04-25T03:56:32;93486.28;;;9.16;90.00
77041;BME280;65974;42.664;23.264;2023-04-25T03:58:58;93491.19;;;9.21;89.75
77041;BME280;65974;42.664;23.264;2023-04-25T04:01:23;93503.00;;;9.16;89.62
77041;BME280;65974;42.664;23.264;2023-04-25T04:03:48;93504.44;;;9.24;90.10
77041;BME280;65974;42.664;23.264;2023-04-25T04:06:14;93507.03;;;9.35;89.45
77041;BME280;65974;42.664;23.264;2023-04-25T04:08:40;93507.41;;;9.33;89.63
77041;BME280;65974;42.664;23.264;2023-04-25T04:11:05;93517.59;;;9.42;89.31
77041;BME280;65974;42.664;23.264;2023-04-25T04:13:31;93514.94;;;9.42;89.02
77041;BME280;65974;42.664;23.264;2023-04-25T04:15:56;93513.38;;;9.48;88.72
77041;BME280;65974;42.664;23.264;2023-04-25T04:18:23;93509.59;;;9.46;88.98
77041;BME280;65974;42.664;23.264;2023-04-25T04:20:48;93507.97;;;9.59;89.29
77041;BME280;65974;42.664;23.264;2023-04-25T04:23:14;93506.47;;;9.58;89.31
77041;BME280;65974;42.664;23.264;2023-04-25T04:25:39;93496.66;;;9.51;88.71
77041;BME280;65974;42.664;23.264;2023-04-25T04:28:06;93509.94;;;9.51;89.06
77041;BME280;65974;42.664;23.264;2023-04-25T04:30:32;93500.09;;;9.48;89.03
77041;BME280;65974;42.664;23.264;2023-04-25T04:32:59;93513.78;;;9.47;88.99
77041;BME280;65974;42.664;23.264;2023-04-25T04:35:26;93502.03;;;9.44;89.24
77041;BME280;65974;42.664;23.264;2023-04-25T04:37:51;93505.81;;;9.47;88.45
77041;BME280;65974;42.664;23.264;2023-04-25T04:40:17;93497.09;;;9.43;89.12
77041;BME280;65974;42.664;23.264;2023-04-25T04:42:45;93495.19;;;9.47;88.97
77041;BME280;65974;42.664;23.264;2023-04-25T04:45:11;93489.13;;;9.43;88.88
77041;BME280;65974;42.664;23.264;2023-04-25T04:47:37;93498.22;;;9.45;88.82
77041;BME280;65974;42.664;23.264;2023-04-25T04:50:08;93498.97;;;9.46;88.96
77041;BME280;65974;42.664;23.264;2023-04-25T04:52:35;93518.38;;;9.43;88.86
77041;BME280;65974;42.664;23.264;2023-04-25T04:55:01;93519.53;;;9.38;89.17
77041;BME280;65974;42.664;23.264;2023-04-25T04:57:27;93518.78;;;9.37;88.87
77041;BME280;65974;42.664;23.264;2023-04-25T04:59:53;93518.78;;;9.41;88.29
77041;BME280;65974;42.664;23.264;2023-04-25T05:02:18;93528.91;;;9.53;88.65
77041;BME280;65974;42.664;23.264;2023-04-25T05:04:44;93532.25;;;9.61;88.34
77041;BME280;65974;42.664;23.264;2023-04-25T05:07:10;93535.72;;;9.58;88.60
77041;BME280;65974;42.664;23.264;2023-04-25T05:09:35;93539.50;;;9.60;88.74
77041;BME280;65974;42.664;23.264;2023-04-25T05:12:01;93533.38;;;9.63;88.52
77041;BME280;65974;42.664;23.264;2023-04-25T05:14:26;93529.94;;;9.66;88.32
77041;BME280;65974;42.664;23.264;2023-04-25T05:16:52;93525.00;;;9.68;88.77
77041;BME280;65974;42.664;23.264;2023-04-25T05:19:17;93526.50;;;9.69;88.13
77041;BME280;65974;42.664;23.264;2023-04-25T05:21:42;93527.66;;;9.68;88.07
77041;BME280;65974;42.664;23.264;2023-04-25T05:24:09;93537.19;;;9.62;88.77
77041;BME280;65974;42.664;23.264;2023-04-25T05:26:35;93539.81;;;9.66;89.05
77041;BME280;65974;42.664;23.264;2023-04-25T05:29:00;93531.81;;;9.69;88.68
77041;BME280;65974;42.664;23.264;2023-04-25T05:31:26;93536.31;;;9.76;88.81
77041;BME280;65974;42.664;23.264;2023-04-25T05:33:52;93545.41;;;9.78;88.29
77041;BME280;65974;42.664;23.264;2023-04-25T05:36:20;93541.63;;;9.79;87.94
77041;BME280;65974;42.664;23.264;2023-04-25T05:38:46;93536.72;;;9.74;88.46
77041;BME280;65974;42.664;23.264;2023-04-25T05:41:12;93541.94;;;9.85;88.20
77041;BME280;65974;42.664;23.264;2023-04-25T05:43:40;93538.13;;;9.86;87.90
77041;BME280;65974;42.664;23.264;2023-04-25T05:46:11;93536.97;;;9.87;88.19
77041;BME280;65974;42.664;23.264;2023-04-25T05:48:37;93535.06;;;9.87;88.07
77041;BME280;65974;42.664;23.264;2023-04-25T05:51:02;93528.22;;;9.86;88.13
77041;BME280;65974;42.664;23.264;2023-04-25T05:53:28;93528.31;;;9.79;89.01
77041;BME280;65974;42.664;23.264;2023-04-25T05:55:53;93526.03;;;9.81;88.53
77041;BME280;65974;42.664;23.264;2023-04-25T05:58:19;93527.88;;;9.84;88.42
77041;BME280;65974;42.664;23.264;2023-04-25T06:00:44;93538.47;;;9.91;88.23
77041;BME280;65974;42.664;23.264;2023-04-25T06:03:11;93531.19;;;9.95;88.71
77041;BME280;65974;42.664;23.264;2023-04-25T06:05:38;93533.50;;;9.93;87.53
77041;BME280;65974;42.664;23.264;2023-04-25T06:08:04;93526.38;;;9.83;88.00
77041;BME280;65974;42.664;23.264;2023-04-25T06:10:30;93533.19;;;9.84;87.88
77041;BME280;65974;42.664;23.264;2023-04-25T06:12:55;93538.13;;;9.86;87.17
77041;BME280;65974;42.664;23.264;2023-04-25T06:15:21;93539.31;;;9.81;87.15
77041;BME280;65974;42.664;23.264;2023-04-25T06:17:46;93542.00;;;9.78;87.66
77041;BME280;65974;42.664;23.264;2023-04-25T06:20:11;93540.84;;;9.79;87.99
77041;BME280;65974;42.664;23.264;2023-04-25T06:22:37;93534.28;;;9.90;87.80
77041;BME280;65974;42.664;23.264;2023-04-25T06:25:02;93543.00;;;9.94;87.33
77041;BME280;65974;42.664;23.264;2023-04-25T06:27:29;93540.25;;;10.05;86.91
77041;BME280;65974;42.664;23.264;2023-04-25T06:29:55;93542.72;;;10.26;86.54
77041;BME280;65974;42.664;23.264;2023-04-25T06:32:20;93539.94;;;10.33;87.23
77041;BME280;65974;42.664;23.264;2023-04-25T06:34:46;93542.91;;;10.42;86.85
77041;BME280;65974;42.664;23.264;2023-04-25T06:37:11;93556.13;;;10.49;85.41
77041;BME280;65974;42.664;23.264;2023-04-25T06:39:36;93538.56;;;10.55;86.06
77041;BME280;65974;42.664;23.264;2023-04-25T06:42:02;93562.84;;;10.61;85.28
77041;BME280;65974;42.664;23.264;2023-04-25T06:44:27;93552.53;;;10.63;83.95
77041;BME280;65974;42.664;23.264;2023-04-25T06:46:54;93561.69;;;10.62;84.30
77041;BME280;65974;42.664;23.264;2023-04-25T06:49:20;93564.28;;;10.69;84.95
77041;BME280;65974;42.664;23.264;2023-04-25T06:51:45;93558.19;;;10.68;84.83
77041;BME280;65974;42.664;23.264;2023-04-25T06:54:10;93552.81;;;10.72;84.85
77041;BME280;65974;42.664;23.264;2023-04-25T06:56:36;93551.94;;;10.82;84.48
77041;BME280;65974;42.664;23.264;2023-04-25T06:59:01;93549.03;;;10.73;83.25
77041;BME280;65974;42.664;23.264;2023-04-25T07:01:27;93548.69;;;10.67;84.49
77041;BME280;65974;42.664;23.264;2023-04-25T07:03:52;93562.34;;;10.73;82.64
77041;BME280;65974;42.664;23.264;2023-04-25T07:06:18;93556.38;;;10.62;84.00
77041;BME280;65974;42.664;23.264;2023-04-25T07:08:43;93553.34;;;10.60;84.34
77041;BME280;65974;42.664;23.264;2023-04-25T07:11:09;93546.44;;;10.66;83.92
77041;BME280;65974;42.664;23.264;2023-04-25T07:13:34;93554.00;;;10.71;83.26
77041;BME280;65974;42.664;23.264;2023-04-25T07:16:00;93541.88;;;10.63;84.06
77041;BME280;65974;42.664;23.264;2023-04-25T07:18:25;93551.56;;;10.80;83.60
77041;BME280;65974;42.664;23.264;2023-04-25T07:20:51;93552.25;;;10.87;83.65
77041;BME280;65974;42.664;23.264;2023-04-25T07:23:16;93540.06;;;10.90;83.52
77041;BME280;65974;42.664;23.264;2023-04-25T07:25:42;93541.25;;;10.85;83.74
77041;BME280;65974;42.664;23.264;2023-04-25T07:28:07;93542.66;;;10.93;83.14
77041;BME280;65974;42.664;23.264;2023-04-25T07:30:32;93535.22;;;11.08;83.18
77041;BME280;65974;42.664;23.264;2023-04-25T07:32:59;93540.88;;;11.14;82.96
77041;BME280;65974;42.664;23.264;2023-04-25T07:35:25;93540.34;;;11.22;82.01
77041;BME280;65974;42.664;23.264;2023-04-25T07:37:50;93543.28;;;11.31;82.04
77041;BME280;65974;42.664;23.264;2023-04-25T07:40:16;93537.94;;;11.31;81.18
77041;BME280;65974;42.664;23.264;2023-04-25T07:42:41;93531.72;;;11.41;81.27
77041;BME280;65974;42.664;23.264;2023-04-25T07:45:07;93532.75;;;11.47;80.72
77041;BME280;65974;42.664;23.264;2023-04-25T07:47:34;93541.91;;;11.46;80.27
77041;BME280;65974;42.664;23.264;2023-04-25T07:50:00;93548.41;;;11.45;80.65
77041;BME280;65974;42.664;23.264;2023-04-25T07:52:25;93542.16;;;11.55;79.63
77041;BME280;65974;42.664;23.264;2023-04-25T07:54:51;93535.66;;;11.56;81.05
77041;BME280;65974;42.664;23.264;2023-04-25T07:57:17;93525.81;;;11.53;80.99
77041;BME280;65974;42.664;23.264;2023-04-25T07:59:43;93537.06;;;11.64;78.79
77041;BME280;65974;42.664;23.264;2023-04-25T08:02:09;93530.56;;;11.65;79.23
77041;BME280;65974;42.664;23.264;2023-04-25T08:04:34;93521.31;;;11.74;79.66
77041;BME280;65974;42.664;23.264;2023-04-25T08:07:00;93520.59;;;11.93;78.35
77041;BME280;65974;42.664;23.264;2023-04-25T08:09:25;93520.06;;;12.01;77.27
77041;BME280;65974;42.664;23.264;2023-04-25T08:11:51;93523.69;;;12.34;69.06
77041;BME280;65974;42.664;23.264;2023-04-25T08:14:16;93518.06;;;12.68;64.38
77041;BME280;65974;42.664;23.264;2023-04-25T08:16:42;93520.75;;;13.03;61.87
77041;BME280;65974;42.664;23.264;2023-04-25T08:19:08;93512.72;;;13.03;62.04
77041;BME280;65974;42.664;23.264;2023-04-25T08:21:33;93501.16;;;13.10;62.10
77041;BME280;65974;42.664;23.264;2023-04-25T08:23:58;93498.00;;;13.15;61.14
77041;BME280;65974;42.664;23.264;2023-04-25T08:26:25;93511.81;;;13.13;61.06
77041;BME280;65974;42.664;23.264;2023-04-25T08:28:50;93513.31;;;13.31;60.61
77041;BME280;65974;42.664;23.264;2023-04-25T08:31:16;93515.16;;;13.34;63.23
77041;BME280;65974;42.664;23.264;2023-04-25T08:33:42;93509.59;;;13.08;65.77
77041;BME280;65974;42.664;23.264;2023-04-25T08:36:08;93513.03;;;13.09;65.49
77041;BME280;65974;42.664;23.264;2023-04-25T08:38:33;93510.72;;;12.91;65.91
77041;BME280;65974;42.664;23.264;2023-04-25T08:41:00;93504.00;;;12.83;66.79
77041;BME280;65974;42.664;23.264;2023-04-25T08:43:29;93506.78;;;12.96;68.54
77041;BME280;65974;42.664;23.264;2023-04-25T08:45:58;93498.09;;;13.11;67.65
77041;BME280;65974;42.664;23.264;2023-04-25T08:48:26;93502.47;;;13.70;64.68
77041;BME280;65974;42.664;23.264;2023-04-25T08:50:54;93491.72;;;14.02;62.05
77041;BME280;65974;42.664;23.264;2023-04-25T08:53:31;93497.66;;;13.93;62.79
77041;BME280;65974;42.664;23.264;2023-04-25T08:55:59;93496.44;;;13.82;59.97
77041;BME280;65974;42.664;23.264;2023-04-25T08:58:27;93490.56;;;13.87;58.96
77041;BME280;65974;42.664;23.264;2023-04-25T09:00:53;93491.88;;;13.95;58.44
77041;BME280;65974;42.664;23.264;2023-04-25T09:03:20;93494.13;;;14.13;56.54
77041;BME280;65974;42.664;23.264;2023-04-25T09:05:45;93488.00;;;14.12;56.39
77041;BME280;65974;42.664;23.264;2023-04-25T09:08:11;93480.81;;;14.54;55.89
77041;BME280;65974;42.664;23.264;2023-04-25T09:10:37;93490.00;;;14.53;55.49
77041;BME280;65974;42.664;23.264;2023-04-25T09:13:05;93479.31;;;14.65;55.65
77041;BME280;65974;42.664;23.264;2023-04-25T09:15:32;93483.88;;;14.94;55.10
77041;BME280;65974;42.664;23.264;2023-04-25T09:18:01;93481.38;;;14.87;52.07
77041;BME280;65974;42.664;23.264;2023-04-25T09:20:26;93480.34;;;14.84;50.40
77041;BME280;65974;42.664;23.264;2023-04-25T09:23:02;93482.00;;;14.78;49.54
77041;BME280;65974;42.664;23.264;2023-04-25T09:25:34;93477.53;;;14.75;49.26
77041;BME280;65974;42.664;23.264;2023-04-25T09:28:03;93483.22;;;14.77;48.92
77041;BME280;65974;42.664;23.264;2023-04-25T09:30:30;93477.09;;;14.76;48.95
77041;BME280;65974;42.664;23.264;2023-04-25T09:32:57;93473.53;;;14.67;48.23
77041;BME280;65974;42.664;23.264;2023-04-25T09:35:25;93477.28;;;14.69;50.53
77041;BME280;65974;42.664;23.264;2023-04-25T09:37:51;93478.94;;;14.92;49.74
77041;BME280;65974;42.664;23.264;2023-04-25T09:40:17;93482.28;;;15.09;48.41
77041;BME280;65974;42.664;23.264;2023-04-25T09:42:43;93473.47;;;15.21;48.86
77041;BME280;65974;42.664;23.264;2023-04-25T09:45:12;93470.69;;;15.37;48.17
77041;BME280;65974;42.664;23.264;2023-04-25T09:47:38;93478.19;;;15.54;46.95
77041;BME280;65974;42.664;23.264;2023-04-25T09:50:13;93472.41;;;15.56;46.33
77041;BME280;65974;42.664;23.264;2023-04-25T09:52:39;93471.16;;;15.48;45.27
77041;BME280;65974;42.664;23.264;2023-04-25T09:55:05;93469.81;;;15.40;44.66
77041;BME280;65974;42.664;23.264;2023-04-25T09:57:31;93462.97;;;15.14;45.57
77041;BME280;65974;42.664;23.264;2023-04-25T09:59:57;93471.56;;;15.09;47.00
77041;BME280;65974;42.664;23.264;2023-04-25T10:02:26;93479.16;;;15.10;47.53
77041;BME280;65974;42.664;23.264;2023-04-25T10:04:54;93496.13;;;15.07;46.83
77041;BME280;65974;42.664;23.264;2023-04-25T10:07:25;93505.00;;;14.92;47.97
77041;BME280;65974;42.664;23.264;2023-04-25T10:09:58;93519.75;;;14.42;52.16
77041;BME280;65974;42.664;23.264;2023-04-25T10:12:26;93522.53;;;13.46;60.29
77041;BME280;65974;42.664;23.264;2023-04-25T10:14:52;93516.28;;;12.81;66.66
77041;BME280;65974;42.664;23.264;2023-04-25T10:17:19;93510.16;;;12.80;67.44
77041;BME280;65974;42.664;23.264;2023-04-25T10:19:50;93495.84;;;12.90;66.51
77041;BME280;65974;42.664;23.264;2023-04-25T10:24:55;93480.16;;;13.60;68.03
77041;BME280;65974;42.664;23.264;2023-04-25T10:27:21;93480.56;;;14.03;67.67
77041;BME280;65974;42.664;23.264;2023-04-25T10:30:00;93469.50;;;14.46;63.60
77041;BME280;65974;42.664;23.264;2023-04-25T10:32:26;93464.13;;;14.75;58.28
77041;BME280;65974;42.664;23.264;2023-04-25T10:34:51;93459.28;;;14.83;55.41
77041;BME280;65974;42.664;23.264;2023-04-25T10:37:18;93457.38;;;14.83;52.08
77041;BME280;65974;42.664;23.264;2023-04-25T10:39:44;93456.53;;;14.99;52.57
77041;BME280;65974;42.664;23.264;2023-04-25T10:42:11;93458.91;;;15.09;52.50
77041;BME280;65974;42.664;23.264;2023-04-25T10:44:38;93460.06;;;15.08;51.25
77041;BME280;65974;42.664;23.264;2023-04-25T10:47:07;93463.50;;;14.84;49.40
77041;BME280;65974;42.664;23.264;2023-04-25T10:49:41;93462.19;;;14.75;50.79
77041;BME280;65974;42.664;23.264;2023-04-25T10:54:47;93460.56;;;14.65;51.14
77041;BME280;65974;42.664;23.264;2023-04-25T11:00:01;93462.19;;;14.75;51.24
77041;BME280;65974;42.664;23.264;2023-04-25T11:02:57;93448.06;;;14.88;51.43
77041;BME280;65974;42.664;23.264;2023-04-25T11:05:32;93456.31;;;14.93;51.61
77041;BME280;65974;42.664;23.264;2023-04-25T11:07:59;93450.94;;;14.81;51.11
77041;BME280;65974;42.664;23.264;2023-04-25T11:10:32;93453.28;;;14.78;51.14
77041;BME280;65974;42.664;23.264;2023-04-25T11:13:00;93446.22;;;14.85;51.67
77041;BME280;65974;42.664;23.264;2023-04-25T11:15:27;93450.94;;;14.81;52.42
77041;BME280;65974;42.664;23.264;2023-04-25T11:17:54;93441.47;;;14.63;52.12
77041;BME280;65974;42.664;23.264;2023-04-25T11:20:20;93449.41;;;14.54;53.17
77041;BME280;65974;42.664;23.264;2023-04-25T11:22:46;93453.25;;;14.53;51.69
77041;BME280;65974;42.664;23.264;2023-04-25T11:25:14;93448.28;;;14.39;53.00
77041;BME280;65974;42.664;23.264;2023-04-25T11:27:50;93457.34;;;14.29;53.64
77041;BME280;65974;42.664;23.264;2023-04-25T11:30:18;93451.28;;;14.13;54.61
77041;BME280;65974;42.664;23.264;2023-04-25T11:32:44;93467.19;;;14.03;55.41
77041;BME280;65974;42.664;23.264;2023-04-25T11:35:10;93468.00;;;13.88;56.55
77041;BME280;65974;42.664;23.264;2023-04-25T11:37:36;93480.38;;;13.82;57.58
77041;BME280;65974;42.664;23.264;2023-04-25T11:40:05;93481.91;;;13.67;57.76
77041;BME280;65974;42.664;23.264;2023-04-25T11:42:44;93487.56;;;13.53;57.70
77041;BME280;65974;42.664;23.264;2023-04-25T11:45:10;93491.31;;;13.23;59.25
77041;BME280;65974;42.664;23.264;2023-04-25T11:47:36;93485.50;;;12.92;60.31
77041;BME280;65974;42.664;23.264;2023-04-25T11:50:06;93482.63;;;12.83;62.40
77041;BME280;65974;42.664;23.264;2023-04-25T11:52:46;93475.03;;;12.82;63.16
77041;BME280;65974;42.664;23.264;2023-04-25T11:55:16;93468.63;;;12.95;62.68
77041;BME280;65974;42.664;23.264;2023-04-25T11:57:44;93464.41;;;13.14;62.29
77041;BME280;65974;42.664;23.264;2023-04-25T12:02:36;93438.25;;;13.38;62.56
77041;BME280;65974;42.664;23.264;2023-04-25T12:05:02;93438.28;;;13.54;63.82
77041;BME280;65974;42.664;23.264;2023-04-25T12:07:31;93441.97;;;13.88;64.30
77041;BME280;65974;42.664;23.264;2023-04-25T12:09:56;93443.53;;;14.02;63.03
77041;BME280;65974;42.664;23.264;2023-04-25T12:12:27;93443.28;;;14.25;61.06
77041;BME280;65974;42.664;23.264;2023-04-25T12:14:52;93443.88;;;14.33;60.38
77041;BME280;65974;42.664;23.264;2023-04-25T12:17:20;93444.44;;;14.12;60.42
77041;BME280;65974;42.664;23.264;2023-04-25T12:19:46;93439.44;;;14.26;58.73
77041;BME280;65974;42.664;23.264;2023-04-25T12:22:23;93442.53;;;14.53;55.49
77041;BME280;65974;42.664;23.264;2023-04-25T12:24:48;93449.28;;;14.58;53.67
77041;BME280;65974;42.664;23.264;2023-04-25T12:27:16;93451.41;;;14.50;53.57
77041;BME280;65974;42.664;23.264;2023-04-25T12:29:50;93482.41;;;14.51;54.42
77041;BME280;65974;42.664;23.264;2023-04-25T12:32:16;93485.75;;;13.66;59.02
77041;BME280;65974;42.664;23.264;2023-04-25T12:34:43;93499.69;;;13.09;61.86
77041;BME280;65974;42.664;23.264;2023-04-25T12:37:09;93506.00;;;12.79;63.42
77041;BME280;65974;42.664;23.264;2023-04-25T12:39:34;93502.44;;;13.21;61.03
77041;BME280;65974;42.664;23.264;2023-04-25T12:42:00;93499.09;;;12.82;60.95
77041;BME280;65974;42.664;23.264;2023-04-25T12:44:26;93507.03;;;12.07;64.61
77041;BME280;65974;42.664;23.264;2023-04-25T12:46:52;93516.06;;;12.13;65.61
77041;BME280;65974;42.664;23.264;2023-04-25T12:49:18;93520.41;;;12.46;65.09
77041;BME280;65974;42.664;23.264;2023-04-25T12:51:43;93518.22;;;11.52;68.38
77041;BME280;65974;42.664;23.264;2023-04-25T12:54:09;93522.78;;;11.28;71.13
77041;BME280;65974;42.664;23.264;2023-04-25T12:56:35;93525.59;;;11.67;69.66
77041;BME280;65974;42.664;23.264;2023-04-25T12:59:01;93523.91;;;11.54;69.56
77041;BME280;65974;42.664;23.264;2023-04-25T13:01:28;93535.44;;;11.21;73.60